Aktuell METAR/TAF ESNU/UME

200050Z AUTO 19005KT 3600 BR NCD 13/12 Q1005=

192330Z 2000/2009 19006KT CAVOK=
Källa: Luftfartsverket (aro.lfv.se)